sensor_id;sensor_type;location;lat;lon;timestamp;P1;durP1;ratioP1;P2;durP2;ratioP2
7406;SDS011;3745;56.964;24.128;2023-07-13T00:00:25;10.88;;;4.65;;
7406;SDS011;3745;56.964;24.128;2023-07-13T00:02:51;4.68;;;4.22;;
7406;SDS011;3745;56.964;24.128;2023-07-13T00:05:22;6.05;;;4.18;;
7406;SDS011;3745;56.964;24.128;2023-07-13T00:07:48;10.07;;;4.75;;
7406;SDS011;3745;56.964;24.128;2023-07-13T00:10:15;9.50;;;4.50;;
7406;SDS011;3745;56.964;24.128;2023-07-13T00:12:41;5.40;;;4.05;;
7406;SDS011;3745;56.964;24.128;2023-07-13T00:15:17;10.20;;;4.63;;
7406;SDS011;3745;56.964;24.128;2023-07-13T00:17:51;5.95;;;4.28;;
7406;SDS011;3745;56.964;24.128;2023-07-13T00:20:18;5.07;;;4.35;;
7406;SDS011;3745;56.964;24.128;2023-07-13T00:22:46;7.70;;;4.28;;
7406;SDS011;3745;56.964;24.128;2023-07-13T00:25:12;7.07;;;4.57;;
7406;SDS011;3745;56.964;24.128;2023-07-13T00:27:38;5.05;;;4.55;;
7406;SDS011;3745;56.964;24.128;2023-07-13T00:30:04;8.00;;;4.53;;
7406;SDS011;3745;56.964;24.128;2023-07-13T00:32:30;8.32;;;4.50;;
7406;SDS011;3745;56.964;24.128;2023-07-13T00:34:57;5.43;;;4.53;;
7406;SDS011;3745;56.964;24.128;2023-07-13T00:37:25;4.40;;;4.13;;
7406;SDS011;3745;56.964;24.128;2023-07-13T00:39:51;5.03;;;4.63;;
7406;SDS011;3745;56.964;24.128;2023-07-13T00:42:18;7.72;;;4.75;;
7406;SDS011;3745;56.964;24.128;2023-07-13T00:47:44;5.35;;;4.80;;
7406;SDS011;3745;56.964;24.128;2023-07-13T00:50:10;5.38;;;4.45;;
7406;SDS011;3745;56.964;24.128;2023-07-13T00:52:40;6.95;;;4.72;;
7406;SDS011;3745;56.964;24.128;2023-07-13T00:55:08;5.35;;;4.85;;
7406;SDS011;3745;56.964;24.128;2023-07-13T00:57:36;10.10;;;5.22;;
7406;SDS011;3745;56.964;24.128;2023-07-13T01:00:03;7.43;;;4.45;;
7406;SDS011;3745;56.964;24.128;2023-07-13T01:02:32;7.65;;;4.47;;
7406;SDS011;3745;56.964;24.128;2023-07-13T01:04:58;5.00;;;4.65;;
7406;SDS011;3745;56.964;24.128;2023-07-13T01:07:24;5.80;;;4.65;;
7406;SDS011;3745;56.964;24.128;2023-07-13T01:09:50;5.07;;;4.10;;
7406;SDS011;3745;56.964;24.128;2023-07-13T01:12:15;4.97;;;4.53;;
7406;SDS011;3745;56.964;24.128;2023-07-13T01:14:41;8.48;;;4.22;;
7406;SDS011;3745;56.964;24.128;2023-07-13T01:17:08;7.93;;;4.22;;
7406;SDS011;3745;56.964;24.128;2023-07-13T01:22:22;5.18;;;4.70;;
7406;SDS011;3745;56.964;24.128;2023-07-13T01:24:52;4.80;;;4.25;;
7406;SDS011;3745;56.964;24.128;2023-07-13T01:27:23;5.03;;;4.53;;
7406;SDS011;3745;56.964;24.128;2023-07-13T01:29:51;6.00;;;4.15;;
7406;SDS011;3745;56.964;24.128;2023-07-13T01:32:19;5.72;;;4.18;;
7406;SDS011;3745;56.964;24.128;2023-07-13T01:34:52;7.97;;;4.88;;
7406;SDS011;3745;56.964;24.128;2023-07-13T01:37:20;5.05;;;4.07;;
7406;SDS011;3745;56.964;24.128;2023-07-13T01:39:46;7.03;;;4.40;;
7406;SDS011;3745;56.964;24.128;2023-07-13T01:42:12;5.18;;;4.20;;
7406;SDS011;3745;56.964;24.128;2023-07-13T01:44:38;6.38;;;4.38;;
7406;SDS011;3745;56.964;24.128;2023-07-13T01:47:04;6.88;;;4.47;;
7406;SDS011;3745;56.964;24.128;2023-07-13T01:49:30;4.60;;;4.15;;
7406;SDS011;3745;56.964;24.128;2023-07-13T01:51:56;4.65;;;4.35;;
7406;SDS011;3745;56.964;24.128;2023-07-13T01:54:22;7.85;;;4.72;;
7406;SDS011;3745;56.964;24.128;2023-07-13T01:56:48;11.18;;;4.30;;
7406;SDS011;3745;56.964;24.128;2023-07-13T01:59:13;5.85;;;4.07;;
7406;SDS011;3745;56.964;24.128;2023-07-13T02:01:39;8.27;;;4.20;;
7406;SDS011;3745;56.964;24.128;2023-07-13T02:04:04;6.70;;;4.50;;
7406;SDS011;3745;56.964;24.128;2023-07-13T02:06:30;7.43;;;4.25;;
7406;SDS011;3745;56.964;24.128;2023-07-13T02:08:56;7.88;;;4.50;;
7406;SDS011;3745;56.964;24.128;2023-07-13T02:11:21;7.07;;;4.47;;
7406;SDS011;3745;56.964;24.128;2023-07-13T02:13:47;9.25;;;4.50;;
7406;SDS011;3745;56.964;24.128;2023-07-13T02:16:12;4.47;;;4.07;;
7406;SDS011;3745;56.964;24.128;2023-07-13T02:18:38;4.68;;;4.28;;
7406;SDS011;3745;56.964;24.128;2023-07-13T02:21:04;5.65;;;4.43;;
7406;SDS011;3745;56.964;24.128;2023-07-13T02:23:30;8.77;;;4.68;;
7406;SDS011;3745;56.964;24.128;2023-07-13T02:25:56;11.20;;;4.60;;
7406;SDS011;3745;56.964;24.128;2023-07-13T02:28:22;4.75;;;3.95;;
7406;SDS011;3745;56.964;24.128;2023-07-13T02:30:48;5.07;;;4.57;;
7406;SDS011;3745;56.964;24.128;2023-07-13T02:33:14;8.98;;;4.22;;
7406;SDS011;3745;56.964;24.128;2023-07-13T02:35:39;9.60;;;4.45;;
7406;SDS011;3745;56.964;24.128;2023-07-13T02:38:05;6.10;;;4.30;;
7406;SDS011;3745;56.964;24.128;2023-07-13T02:40:31;8.00;;;4.38;;
7406;SDS011;3745;56.964;24.128;2023-07-13T02:43:01;5.90;;;4.82;;
7406;SDS011;3745;56.964;24.128;2023-07-13T02:45:27;10.13;;;4.72;;
7406;SDS011;3745;56.964;24.128;2023-07-13T02:47:53;9.75;;;4.70;;
7406;SDS011;3745;56.964;24.128;2023-07-13T02:50:20;6.05;;;4.57;;
7406;SDS011;3745;56.964;24.128;2023-07-13T02:52:45;4.72;;;4.20;;
7406;SDS011;3745;56.964;24.128;2023-07-13T02:55:11;5.07;;;4.57;;
7406;SDS011;3745;56.964;24.128;2023-07-13T02:57:37;8.50;;;4.45;;
7406;SDS011;3745;56.964;24.128;2023-07-13T03:00:03;7.68;;;4.85;;
7406;SDS011;3745;56.964;24.128;2023-07-13T03:02:33;8.70;;;4.70;;
7406;SDS011;3745;56.964;24.128;2023-07-13T03:04:59;6.47;;;4.50;;
7406;SDS011;3745;56.964;24.128;2023-07-13T03:07:25;7.25;;;5.32;;
7406;SDS011;3745;56.964;24.128;2023-07-13T03:09:54;6.43;;;4.38;;
7406;SDS011;3745;56.964;24.128;2023-07-13T03:12:23;7.28;;;5.03;;
7406;SDS011;3745;56.964;24.128;2023-07-13T03:14:49;6.72;;;4.70;;
7406;SDS011;3745;56.964;24.128;2023-07-13T03:17:14;8.38;;;4.80;;
7406;SDS011;3745;56.964;24.128;2023-07-13T03:19:40;5.50;;;4.68;;
7406;SDS011;3745;56.964;24.128;2023-07-13T03:22:06;13.55;;;4.63;;
7406;SDS011;3745;56.964;24.128;2023-07-13T03:24:32;10.20;;;4.97;;
7406;SDS011;3745;56.964;24.128;2023-07-13T03:27:00;7.10;;;5.22;;
7406;SDS011;3745;56.964;24.128;2023-07-13T03:29:27;7.43;;;5.00;;
7406;SDS011;3745;56.964;24.128;2023-07-13T03:31:53;8.77;;;4.60;;
7406;SDS011;3745;56.964;24.128;2023-07-13T03:34:18;7.45;;;5.45;;
7406;SDS011;3745;56.964;24.128;2023-07-13T03:36:44;6.00;;;4.72;;
7406;SDS011;3745;56.964;24.128;2023-07-13T03:39:09;4.85;;;4.50;;
7406;SDS011;3745;56.964;24.128;2023-07-13T03:41:35;9.10;;;5.05;;
7406;SDS011;3745;56.964;24.128;2023-07-13T03:44:01;10.48;;;5.75;;
7406;SDS011;3745;56.964;24.128;2023-07-13T03:46:27;6.72;;;5.38;;
7406;SDS011;3745;56.964;24.128;2023-07-13T03:48:53;9.25;;;4.93;;
7406;SDS011;3745;56.964;24.128;2023-07-13T03:51:19;9.80;;;5.95;;
7406;SDS011;3745;56.964;24.128;2023-07-13T03:53:46;10.57;;;5.07;;
7406;SDS011;3745;56.964;24.128;2023-07-13T03:56:13;6.47;;;5.55;;
7406;SDS011;3745;56.964;24.128;2023-07-13T03:58:41;12.05;;;5.75;;
7406;SDS011;3745;56.964;24.128;2023-07-13T04:01:08;8.77;;;6.03;;
7406;SDS011;3745;56.964;24.128;2023-07-13T04:03:35;15.02;;;6.10;;
7406;SDS011;3745;56.964;24.128;2023-07-13T04:06:02;6.22;;;5.63;;
7406;SDS011;3745;56.964;24.128;2023-07-13T04:08:32;14.85;;;6.22;;
7406;SDS011;3745;56.964;24.128;2023-07-13T04:10:59;6.90;;;5.93;;
7406;SDS011;3745;56.964;24.128;2023-07-13T04:13:26;6.47;;;5.45;;
7406;SDS011;3745;56.964;24.128;2023-07-13T04:15:52;9.95;;;6.00;;
7406;SDS011;3745;56.964;24.128;2023-07-13T04:18:19;11.48;;;6.47;;
7406;SDS011;3745;56.964;24.128;2023-07-13T04:20:46;9.43;;;6.22;;
7406;SDS011;3745;56.964;24.128;2023-07-13T04:23:12;16.83;;;7.15;;
7406;SDS011;3745;56.964;24.128;2023-07-13T04:25:38;10.85;;;7.07;;
7406;SDS011;3745;56.964;24.128;2023-07-13T04:28:04;8.23;;;6.88;;
7406;SDS011;3745;56.964;24.128;2023-07-13T04:30:30;10.52;;;6.90;;
7406;SDS011;3745;56.964;24.128;2023-07-13T04:32:56;15.80;;;7.07;;
7406;SDS011;3745;56.964;24.128;2023-07-13T04:35:22;12.30;;;7.50;;
7406;SDS011;3745;56.964;24.128;2023-07-13T04:37:48;12.60;;;7.68;;
7406;SDS011;3745;56.964;24.128;2023-07-13T04:40:18;16.63;;;7.55;;
7406;SDS011;3745;56.964;24.128;2023-07-13T04:42:46;13.85;;;7.40;;
7406;SDS011;3745;56.964;24.128;2023-07-13T04:45:12;10.02;;;7.10;;
7406;SDS011;3745;56.964;24.128;2023-07-13T04:47:39;19.05;;;8.02;;
7406;SDS011;3745;56.964;24.128;2023-07-13T04:50:05;12.25;;;8.00;;
7406;SDS011;3745;56.964;24.128;2023-07-13T04:52:32;11.98;;;7.57;;
7406;SDS011;3745;56.964;24.128;2023-07-13T04:54:58;11.18;;;8.25;;
7406;SDS011;3745;56.964;24.128;2023-07-13T04:57:25;13.10;;;8.27;;
7406;SDS011;3745;56.964;24.128;2023-07-13T04:59:51;9.13;;;7.68;;
7406;SDS011;3745;56.964;24.128;2023-07-13T05:02:16;8.63;;;7.57;;
7406;SDS011;3745;56.964;24.128;2023-07-13T05:04:42;11.48;;;8.18;;
7406;SDS011;3745;56.964;24.128;2023-07-13T05:07:07;10.68;;;8.23;;
7406;SDS011;3745;56.964;24.128;2023-07-13T05:09:33;10.70;;;7.97;;
7406;SDS011;3745;56.964;24.128;2023-07-13T05:11:59;13.35;;;8.07;;
7406;SDS011;3745;56.964;24.128;2023-07-13T05:14:24;14.95;;;7.90;;
7406;SDS011;3745;56.964;24.128;2023-07-13T05:16:50;15.15;;;8.50;;
7406;SDS011;3745;56.964;24.128;2023-07-13T05:19:15;11.70;;;8.27;;
7406;SDS011;3745;56.964;24.128;2023-07-13T05:21:41;11.35;;;8.40;;
7406;SDS011;3745;56.964;24.128;2023-07-13T05:24:06;9.48;;;8.27;;
7406;SDS011;3745;56.964;24.128;2023-07-13T05:26:32;9.48;;;7.68;;
7406;SDS011;3745;56.964;24.128;2023-07-13T05:28:58;10.82;;;7.82;;
7406;SDS011;3745;56.964;24.128;2023-07-13T05:31:23;14.23;;;7.72;;
7406;SDS011;3745;56.964;24.128;2023-07-13T05:33:49;14.85;;;7.82;;
7406;SDS011;3745;56.964;24.128;2023-07-13T05:36:14;11.57;;;8.00;;
7406;SDS011;3745;56.964;24.128;2023-07-13T05:38:40;9.32;;;7.28;;
7406;SDS011;3745;56.964;24.128;2023-07-13T05:41:06;9.95;;;7.97;;
7406;SDS011;3745;56.964;24.128;2023-07-13T05:43:32;8.43;;;7.57;;
7406;SDS011;3745;56.964;24.128;2023-07-13T05:45:58;10.20;;;7.78;;
7406;SDS011;3745;56.964;24.128;2023-07-13T05:48:23;8.88;;;6.90;;
7406;SDS011;3745;56.964;24.128;2023-07-13T05:50:50;7.72;;;6.43;;
7406;SDS011;3745;56.964;24.128;2023-07-13T05:53:16;7.80;;;6.85;;
7406;SDS011;3745;56.964;24.128;2023-07-13T05:55:45;6.53;;;5.85;;
7406;SDS011;3745;56.964;24.128;2023-07-13T05:58:19;7.07;;;5.90;;
7406;SDS011;3745;56.964;24.128;2023-07-13T06:00:45;6.78;;;6.20;;
7406;SDS011;3745;56.964;24.128;2023-07-13T06:03:12;6.47;;;5.97;;
7406;SDS011;3745;56.964;24.128;2023-07-13T06:05:38;6.32;;;5.82;;
7406;SDS011;3745;56.964;24.128;2023-07-13T06:08:04;6.60;;;6.00;;
7406;SDS011;3745;56.964;24.128;2023-07-13T06:10:34;6.78;;;5.70;;
7406;SDS011;3745;56.964;24.128;2023-07-13T06:13:01;5.60;;;5.13;;
7406;SDS011;3745;56.964;24.128;2023-07-13T06:15:27;9.88;;;5.65;;
7406;SDS011;3745;56.964;24.128;2023-07-13T06:17:52;9.07;;;5.38;;
7406;SDS011;3745;56.964;24.128;2023-07-13T06:20:18;5.88;;;5.25;;
7406;SDS011;3745;56.964;24.128;2023-07-13T06:22:44;5.95;;;5.38;;
7406;SDS011;3745;56.964;24.128;2023-07-13T06:25:09;5.85;;;5.22;;
7406;SDS011;3745;56.964;24.128;2023-07-13T06:27:35;9.20;;;5.50;;
7406;SDS011;3745;56.964;24.128;2023-07-13T06:30:03;6.15;;;5.57;;
7406;SDS011;3745;56.964;24.128;2023-07-13T06:32:29;5.63;;;5.03;;
7406;SDS011;3745;56.964;24.128;2023-07-13T06:34:55;5.38;;;4.97;;
7406;SDS011;3745;56.964;24.128;2023-07-13T06:37:20;5.95;;;5.40;;
7406;SDS011;3745;56.964;24.128;2023-07-13T06:39:46;6.40;;;4.95;;
7406;SDS011;3745;56.964;24.128;2023-07-13T06:42:11;5.57;;;5.18;;
7406;SDS011;3745;56.964;24.128;2023-07-13T06:44:37;5.10;;;4.70;;
7406;SDS011;3745;56.964;24.128;2023-07-13T06:47:03;5.40;;;5.00;;
7406;SDS011;3745;56.964;24.128;2023-07-13T06:49:28;5.28;;;4.90;;
7406;SDS011;3745;56.964;24.128;2023-07-13T06:51:56;5.78;;;5.28;;
7406;SDS011;3745;56.964;24.128;2023-07-13T06:54:22;5.20;;;4.78;;
7406;SDS011;3745;56.964;24.128;2023-07-13T06:56:47;6.70;;;5.15;;
7406;SDS011;3745;56.964;24.128;2023-07-13T06:59:13;5.63;;;4.90;;
7406;SDS011;3745;56.964;24.128;2023-07-13T07:01:38;5.43;;;4.85;;
7406;SDS011;3745;56.964;24.128;2023-07-13T07:04:04;5.30;;;4.88;;
7406;SDS011;3745;56.964;24.128;2023-07-13T07:06:30;5.05;;;4.75;;
7406;SDS011;3745;56.964;24.128;2023-07-13T07:08:55;4.57;;;4.25;;
7406;SDS011;3745;56.964;24.128;2023-07-13T07:11:22;4.72;;;4.43;;
7406;SDS011;3745;56.964;24.128;2023-07-13T07:13:49;5.57;;;5.10;;
7406;SDS011;3745;56.964;24.128;2023-07-13T07:16:16;6.00;;;5.40;;
7406;SDS011;3745;56.964;24.128;2023-07-13T07:18:43;7.72;;;5.00;;
7406;SDS011;3745;56.964;24.128;2023-07-13T07:21:08;5.30;;;4.90;;
7406;SDS011;3745;56.964;24.128;2023-07-13T07:23:34;5.40;;;4.63;;
7406;SDS011;3745;56.964;24.128;2023-07-13T07:26:00;5.55;;;4.65;;
7406;SDS011;3745;56.964;24.128;2023-07-13T07:28:26;6.03;;;5.43;;
7406;SDS011;3745;56.964;24.128;2023-07-13T07:30:54;5.13;;;4.68;;
7406;SDS011;3745;56.964;24.128;2023-07-13T07:33:31;4.55;;;4.30;;
7406;SDS011;3745;56.964;24.128;2023-07-13T07:36:00;4.93;;;4.63;;
7406;SDS011;3745;56.964;24.128;2023-07-13T07:38:26;7.53;;;5.22;;
7406;SDS011;3745;56.964;24.128;2023-07-13T07:40:52;5.20;;;4.70;;
7406;SDS011;3745;56.964;24.128;2023-07-13T07:43:18;5.55;;;5.05;;
7406;SDS011;3745;56.964;24.128;2023-07-13T07:45:44;6.88;;;4.90;;
7406;SDS011;3745;56.964;24.128;2023-07-13T07:48:10;7.45;;;4.50;;
7406;SDS011;3745;56.964;24.128;2023-07-13T07:50:36;4.32;;;4.03;;
7406;SDS011;3745;56.964;24.128;2023-07-13T07:53:02;7.18;;;4.47;;
7406;SDS011;3745;56.964;24.128;2023-07-13T07:55:30;6.85;;;4.60;;
7406;SDS011;3745;56.964;24.128;2023-07-13T07:57:59;5.20;;;4.80;;
7406;SDS011;3745;56.964;24.128;2023-07-13T08:00:24;5.40;;;4.47;;
7406;SDS011;3745;56.964;24.128;2023-07-13T08:02:50;4.72;;;4.43;;
7406;SDS011;3745;56.964;24.128;2023-07-13T08:05:16;6.43;;;5.28;;
7406;SDS011;3745;56.964;24.128;2023-07-13T08:07:41;6.40;;;5.25;;
7406;SDS011;3745;56.964;24.128;2023-07-13T08:10:07;7.45;;;5.35;;
7406;SDS011;3745;56.964;24.128;2023-07-13T08:12:34;5.65;;;5.07;;
7406;SDS011;3745;56.964;24.128;2023-07-13T08:15:00;5.13;;;4.65;;
7406;SDS011;3745;56.964;24.128;2023-07-13T08:17:26;4.57;;;4.30;;
7406;SDS011;3745;56.964;24.128;2023-07-13T08:19:52;4.68;;;4.28;;
7406;SDS011;3745;56.964;24.128;2023-07-13T08:22:18;5.15;;;4.70;;
7406;SDS011;3745;56.964;24.128;2023-07-13T08:24:43;5.20;;;4.55;;
7406;SDS011;3745;56.964;24.128;2023-07-13T08:27:10;4.97;;;4.55;;
7406;SDS011;3745;56.964;24.128;2023-07-13T08:29:36;4.60;;;4.30;;
7406;SDS011;3745;56.964;24.128;2023-07-13T08:32:03;5.88;;;4.57;;
7406;SDS011;3745;56.964;24.128;2023-07-13T08:34:31;4.53;;;4.20;;
7406;SDS011;3745;56.964;24.128;2023-07-13T08:36:56;4.55;;;4.20;;
7406;SDS011;3745;56.964;24.128;2023-07-13T08:39:22;4.43;;;3.72;;
7406;SDS011;3745;56.964;24.128;2023-07-13T08:41:48;3.83;;;3.55;;
7406;SDS011;3745;56.964;24.128;2023-07-13T08:44:24;4.72;;;3.45;;
7406;SDS011;3745;56.964;24.128;2023-07-13T08:47:01;5.05;;;3.83;;
7406;SDS011;3745;56.964;24.128;2023-07-13T08:49:28;3.90;;;3.60;;
7406;SDS011;3745;56.964;24.128;2023-07-13T08:51:59;5.63;;;3.47;;
7406;SDS011;3745;56.964;24.128;2023-07-13T08:54:34;4.07;;;3.78;;
7406;SDS011;3745;56.964;24.128;2023-07-13T08:57:15;5.85;;;3.63;;
7406;SDS011;3745;56.964;24.128;2023-07-13T08:59:45;3.80;;;3.60;;
7406;SDS011;3745;56.964;24.128;2023-07-13T09:02:25;3.85;;;3.40;;
7406;SDS011;3745;56.964;24.128;2023-07-13T09:08:00;9.93;;;3.63;;
7406;SDS011;3745;56.964;24.128;2023-07-13T09:10:43;3.75;;;3.20;;
7406;SDS011;3745;56.964;24.128;2023-07-13T09:13:20;5.20;;;3.38;;
7406;SDS011;3745;56.964;24.128;2023-07-13T09:16:02;3.30;;;3.15;;
7406;SDS011;3745;56.964;24.128;2023-07-13T09:18:33;3.08;;;2.97;;
7406;SDS011;3745;56.964;24.128;2023-07-13T09:21:23;3.50;;;3.20;;
7406;SDS011;3745;56.964;24.128;2023-07-13T09:23:56;4.00;;;3.50;;
7406;SDS011;3745;56.964;24.128;2023-07-13T09:26:26;3.72;;;3.42;;
7406;SDS011;3745;56.964;24.128;2023-07-13T09:28:58;3.53;;;3.22;;
7406;SDS011;3745;56.964;24.128;2023-07-13T09:31:33;3.58;;;3.28;;
7406;SDS011;3745;56.964;24.128;2023-07-13T09:34:11;3.03;;;2.80;;
7406;SDS011;3745;56.964;24.128;2023-07-13T09:36:37;43.28;;;9.02;;
7406;SDS011;3745;56.964;24.128;2023-07-13T09:39:05;12.48;;;4.00;;
7406;SDS011;3745;56.964;24.128;2023-07-13T09:44:42;3.03;;;2.88;;
7406;SDS011;3745;56.964;24.128;2023-07-13T09:47:18;2.63;;;2.53;;
7406;SDS011;3745;56.964;24.128;2023-07-13T09:49:48;2.85;;;2.65;;
7406;SDS011;3745;56.964;24.128;2023-07-13T09:52:20;3.42;;;2.50;;
7406;SDS011;3745;56.964;24.128;2023-07-13T09:54:48;4.13;;;2.38;;
7406;SDS011;3745;56.964;24.128;2023-07-13T09:57:16;2.47;;;2.25;;
7406;SDS011;3745;56.964;24.128;2023-07-13T09:59:43;3.45;;;2.50;;
7406;SDS011;3745;56.964;24.128;2023-07-13T10:05:01;2.42;;;2.22;;
7406;SDS011;3745;56.964;24.128;2023-07-13T10:07:29;2.47;;;2.28;;
7406;SDS011;3745;56.964;24.128;2023-07-13T10:10:00;2.63;;;2.38;;
7406;SDS011;3745;56.964;24.128;2023-07-13T10:12:28;3.08;;;1.90;;
7406;SDS011;3745;56.964;24.128;2023-07-13T10:15:00;2.40;;;2.20;;
7406;SDS011;3745;56.964;24.128;2023-07-13T10:17:30;2.58;;;2.40;;
7406;SDS011;3745;56.964;24.128;2023-07-13T10:19:58;2.30;;;2.10;;
7406;SDS011;3745;56.964;24.128;2023-07-13T10:25:31;2.40;;;2.17;;
7406;SDS011;3745;56.964;24.128;2023-07-13T10:28:00;3.38;;;2.40;;
7406;SDS011;3745;56.964;24.128;2023-07-13T10:30:32;2.20;;;2.10;;
7406;SDS011;3745;56.964;24.128;2023-07-13T10:33:05;2.10;;;2.00;;
7406;SDS011;3745;56.964;24.128;2023-07-13T10:35:36;2.55;;;2.25;;
7406;SDS011;3745;56.964;24.128;2023-07-13T10:38:10;1.98;;;1.98;;
7406;SDS011;3745;56.964;24.128;2023-07-13T10:40:42;2.08;;;2.08;;
7406;SDS011;3745;56.964;24.128;2023-07-13T10:43:14;1.88;;;1.80;;
7406;SDS011;3745;56.964;24.128;2023-07-13T10:45:45;2.42;;;2.30;;
7406;SDS011;3745;56.964;24.128;2023-07-13T10:48:15;3.05;;;2.22;;
7406;SDS011;3745;56.964;24.128;2023-07-13T10:50:42;1.70;;;1.70;;
7406;SDS011;3745;56.964;24.128;2023-07-13T10:53:18;2.90;;;2.40;;
7406;SDS011;3745;56.964;24.128;2023-07-13T10:56:00;2.10;;;1.98;;
7406;SDS011;3745;56.964;24.128;2023-07-13T11:01:14;2.13;;;1.95;;
7406;SDS011;3745;56.964;24.128;2023-07-13T11:03:59;2.67;;;1.92;;
7406;SDS011;3745;56.964;24.128;2023-07-13T11:08:57;3.45;;;2.30;;
7406;SDS011;3745;56.964;24.128;2023-07-13T11:12:10;3.20;;;2.22;;
7406;SDS011;3745;56.964;24.128;2023-07-13T11:15:13;2.65;;;2.45;;
7406;SDS011;3745;56.964;24.128;2023-07-13T11:18:01;1.80;;;1.80;;
7406;SDS011;3745;56.964;24.128;2023-07-13T11:20:32;1.92;;;1.90;;
7406;SDS011;3745;56.964;24.128;2023-07-13T11:25:40;3.55;;;2.28;;
7406;SDS011;3745;56.964;24.128;2023-07-13T11:28:23;4.93;;;2.20;;
7406;SDS011;3745;56.964;24.128;2023-07-13T11:36:06;2.13;;;1.90;;
7406;SDS011;3745;56.964;24.128;2023-07-13T11:38:39;2.00;;;1.90;;
7406;SDS011;3745;56.964;24.128;2023-07-13T11:41:17;2.60;;;2.40;;
7406;SDS011;3745;56.964;24.128;2023-07-13T11:43:49;2.30;;;2.20;;
7406;SDS011;3745;56.964;24.128;2023-07-13T11:46:23;2.42;;;1.90;;
7406;SDS011;3745;56.964;24.128;2023-07-13T11:48:50;2.97;;;2.35;;
7406;SDS011;3745;56.964;24.128;2023-07-13T11:51:21;2.20;;;2.10;;
7406;SDS011;3745;56.964;24.128;2023-07-13T11:53:49;2.60;;;2.30;;
7406;SDS011;3745;56.964;24.128;2023-07-13T11:56:16;4.80;;;2.53;;
7406;SDS011;3745;56.964;24.128;2023-07-13T11:58:42;3.38;;;2.63;;
7406;SDS011;3745;56.964;24.128;2023-07-13T12:01:28;3.38;;;3.10;;
7406;SDS011;3745;56.964;24.128;2023-07-13T12:03:58;4.03;;;3.67;;
7406;SDS011;3745;56.964;24.128;2023-07-13T12:06:32;3.72;;;3.38;;
7406;SDS011;3745;56.964;24.128;2023-07-13T12:09:03;4.55;;;3.40;;
7406;SDS011;3745;56.964;24.128;2023-07-13T12:11:50;5.13;;;4.45;;
7406;SDS011;3745;56.964;24.128;2023-07-13T12:14:16;7.47;;;4.18;;
7406;SDS011;3745;56.964;24.128;2023-07-13T12:16:43;5.45;;;4.95;;
7406;SDS011;3745;56.964;24.128;2023-07-13T12:19:18;7.78;;;7.07;;
7406;SDS011;3745;56.964;24.128;2023-07-13T12:21:57;12.50;;;7.90;;
7406;SDS011;3745;56.964;24.128;2023-07-13T12:24:27;11.45;;;7.80;;
7406;SDS011;3745;56.964;24.128;2023-07-13T12:26:55;9.80;;;6.88;;
7406;SDS011;3745;56.964;24.128;2023-07-13T12:29:26;8.52;;;7.03;;
7406;SDS011;3745;56.964;24.128;2023-07-13T12:31:52;9.38;;;7.40;;
7406;SDS011;3745;56.964;24.128;2023-07-13T12:34:19;7.82;;;6.90;;
7406;SDS011;3745;56.964;24.128;2023-07-13T12:39:16;6.22;;;4.97;;
7406;SDS011;3745;56.964;24.128;2023-07-13T12:41:45;4.15;;;3.03;;
7406;SDS011;3745;56.964;24.128;2023-07-13T12:44:12;5.68;;;2.60;;
7406;SDS011;3745;56.964;24.128;2023-07-13T12:47:05;5.43;;;2.60;;
7406;SDS011;3745;56.964;24.128;2023-07-13T12:49:40;8.73;;;2.22;;
7406;SDS011;3745;56.964;24.128;2023-07-13T12:52:14;2.08;;;1.88;;
7406;SDS011;3745;56.964;24.128;2023-07-13T12:54:52;4.80;;;2.20;;
7406;SDS011;3745;56.964;24.128;2023-07-13T12:57:22;2.15;;;2.03;;
7406;SDS011;3745;56.964;24.128;2023-07-13T12:59:51;3.80;;;2.00;;
7406;SDS011;3745;56.964;24.128;2023-07-13T13:02:39;3.42;;;1.80;;
7406;SDS011;3745;56.964;24.128;2023-07-13T13:05:04;2.45;;;2.25;;
7406;SDS011;3745;56.964;24.128;2023-07-13T13:07:30;4.53;;;2.00;;
7406;SDS011;3745;56.964;24.128;2023-07-13T13:09:59;3.83;;;2.17;;
7406;SDS011;3745;56.964;24.128;2023-07-13T13:12:25;2.78;;;1.92;;
7406;SDS011;3745;56.964;24.128;2023-07-13T13:14:51;3.83;;;2.08;;
7406;SDS011;3745;56.964;24.128;2023-07-13T13:17:22;5.63;;;2.10;;
7406;SDS011;3745;56.964;24.128;2023-07-13T13:19:51;2.08;;;1.90;;
7406;SDS011;3745;56.964;24.128;2023-07-13T13:22:20;5.50;;;1.92;;
7406;SDS011;3745;56.964;24.128;2023-07-13T13:24:46;2.22;;;2.03;;
7406;SDS011;3745;56.964;24.128;2023-07-13T13:27:16;2.58;;;1.92;;
7406;SDS011;3745;56.964;24.128;2023-07-13T13:29:43;2.10;;;1.90;;
7406;SDS011;3745;56.964;24.128;2023-07-13T13:32:13;1.90;;;1.80;;
7406;SDS011;3745;56.964;24.128;2023-07-13T13:34:40;5.15;;;2.28;;
7406;SDS011;3745;56.964;24.128;2023-07-13T13:37:14;4.78;;;2.40;;
7406;SDS011;3745;56.964;24.128;2023-07-13T13:39:46;2.50;;;2.30;;
7406;SDS011;3745;56.964;24.128;2023-07-13T13:42:12;4.68;;;2.20;;
7406;SDS011;3745;56.964;24.128;2023-07-13T13:44:37;2.90;;;2.60;;
7406;SDS011;3745;56.964;24.128;2023-07-13T13:47:03;2.88;;;2.33;;
7406;SDS011;3745;56.964;24.128;2023-07-13T13:49:29;2.67;;;2.45;;
7406;SDS011;3745;56.964;24.128;2023-07-13T13:51:56;4.57;;;2.50;;
7406;SDS011;3745;56.964;24.128;2023-07-13T13:54:22;3.75;;;2.70;;
7406;SDS011;3745;56.964;24.128;2023-07-13T13:56:52;2.70;;;2.50;;
7406;SDS011;3745;56.964;24.128;2023-07-13T13:59:18;3.97;;;2.75;;
7406;SDS011;3745;56.964;24.128;2023-07-13T14:01:47;2.67;;;2.40;;
7406;SDS011;3745;56.964;24.128;2023-07-13T14:04:18;3.25;;;2.97;;
7406;SDS011;3745;56.964;24.128;2023-07-13T14:06:46;3.35;;;2.83;;
7406;SDS011;3745;56.964;24.128;2023-07-13T14:09:14;3.72;;;2.92;;
7406;SDS011;3745;56.964;24.128;2023-07-13T14:11:42;5.22;;;3.25;;
7406;SDS011;3745;56.964;24.128;2023-07-13T14:14:16;5.05;;;2.92;;
7406;SDS011;3745;56.964;24.128;2023-07-13T14:16:44;5.05;;;2.75;;
7406;SDS011;3745;56.964;24.128;2023-07-13T14:19:11;3.97;;;3.15;;
7406;SDS011;3745;56.964;24.128;2023-07-13T14:21:39;3.35;;;2.97;;
7406;SDS011;3745;56.964;24.128;2023-07-13T14:24:05;3.10;;;3.00;;
7406;SDS011;3745;56.964;24.128;2023-07-13T14:26:32;3.70;;;3.03;;
7406;SDS011;3745;56.964;24.128;2023-07-13T14:29:04;2.80;;;2.60;;
7406;SDS011;3745;56.964;24.128;2023-07-13T14:31:35;3.20;;;2.80;;
7406;SDS011;3745;56.964;24.128;2023-07-13T14:34:01;3.85;;;2.40;;
7406;SDS011;3745;56.964;24.128;2023-07-13T14:36:28;5.18;;;2.40;;
7406;SDS011;3745;56.964;24.128;2023-07-13T14:39:15;2.85;;;2.65;;
7406;SDS011;3745;56.964;24.128;2023-07-13T14:41:49;3.80;;;3.05;;
7406;SDS011;3745;56.964;24.128;2023-07-13T14:44:16;3.95;;;2.58;;
7406;SDS011;3745;56.964;24.128;2023-07-13T14:46:46;3.28;;;2.90;;
7406;SDS011;3745;56.964;24.128;2023-07-13T14:49:35;5.70;;;2.75;;
7406;SDS011;3745;56.964;24.128;2023-07-13T14:52:09;4.15;;;2.67;;
7406;SDS011;3745;56.964;24.128;2023-07-13T14:54:38;6.18;;;2.97;;
7406;SDS011;3745;56.964;24.128;2023-07-13T14:57:14;3.20;;;2.90;;
7406;SDS011;3745;56.964;24.128;2023-07-13T14:59:41;3.38;;;2.75;;
7406;SDS011;3745;56.964;24.128;2023-07-13T15:05:16;3.00;;;2.70;;
7406;SDS011;3745;56.964;24.128;2023-07-13T15:07:52;3.40;;;2.63;;
7406;SDS011;3745;56.964;24.128;2023-07-13T15:10:25;6.28;;;2.80;;
7406;SDS011;3745;56.964;24.128;2023-07-13T15:13:01;7.22;;;3.03;;
7406;SDS011;3745;56.964;24.128;2023-07-13T15:15:38;4.38;;;2.58;;
7406;SDS011;3745;56.964;24.128;2023-07-13T15:18:09;3.15;;;2.85;;
7406;SDS011;3745;56.964;24.128;2023-07-13T15:20:36;2.72;;;2.50;;
7406;SDS011;3745;56.964;24.128;2023-07-13T15:23:10;2.60;;;2.40;;
7406;SDS011;3745;56.964;24.128;2023-07-13T15:25:46;3.63;;;2.42;;
7406;SDS011;3745;56.964;24.128;2023-07-13T15:28:11;4.88;;;2.80;;
7406;SDS011;3745;56.964;24.128;2023-07-13T15:30:44;2.75;;;2.55;;
7406;SDS011;3745;56.964;24.128;2023-07-13T15:33:31;0.10;;;0.10;;
7406;SDS011;3745;56.964;24.128;2023-07-13T15:38:40;0.10;;;0.10;;
7406;SDS011;3745;56.964;24.128;2023-07-13T15:41:21;0.40;;;0.40;;
7406;SDS011;3745;56.964;24.128;2023-07-13T15:50:29;6.18;;;2.67;;
7406;SDS011;3745;56.964;24.128;2023-07-13T16:54:48;4.25;;;2.22;;
7406;SDS011;3745;56.964;24.128;2023-07-13T17:00:51;2.63;;;2.40;;